sensor_id;sensor_type;location;lat;lon;timestamp;pressure;altitude;pressure_sealevel;temperature;humidity
11049;BME280;5577;42.706;23.160;2023-07-08T00:02:13;64821.28;;;-141.11;100.00
11049;BME280;5577;42.706;23.160;2023-07-08T00:04:57;64821.28;;;-141.11;100.00
11049;BME280;5577;42.706;23.160;2023-07-08T00:07:41;64821.28;;;-141.11;100.00
11049;BME280;5577;42.706;23.160;2023-07-08T00:10:27;64821.28;;;-141.11;100.00
11049;BME280;5577;42.706;23.160;2023-07-08T00:13:11;64821.28;;;-141.11;100.00
11049;BME280;5577;42.706;23.160;2023-07-08T00:15:55;64821.28;;;-141.11;100.00
11049;BME280;5577;42.706;23.160;2023-07-08T00:18:39;64821.28;;;-141.11;100.00
11049;BME280;5577;42.706;23.160;2023-07-08T00:21:24;64821.28;;;-141.11;100.00
11049;BME280;5577;42.706;23.160;2023-07-08T00:24:07;64821.28;;;-141.11;100.00
11049;BME280;5577;42.706;23.160;2023-07-08T00:26:51;64821.28;;;-141.11;100.00
11049;BME280;5577;42.706;23.160;2023-07-08T00:29:35;64821.28;;;-141.11;100.00
11049;BME280;5577;42.706;23.160;2023-07-08T00:32:19;64821.28;;;-141.11;100.00
11049;BME280;5577;42.706;23.160;2023-07-08T00:35:04;64821.28;;;-141.11;100.00
11049;BME280;5577;42.706;23.160;2023-07-08T00:37:49;64821.28;;;-141.11;100.00
11049;BME280;5577;42.706;23.160;2023-07-08T00:40:36;64821.28;;;-141.11;100.00
11049;BME280;5577;42.706;23.160;2023-07-08T00:43:24;64821.28;;;-141.11;100.00
11049;BME280;5577;42.706;23.160;2023-07-08T00:52:33;64821.28;;;-141.11;100.00
11049;BME280;5577;42.706;23.160;2023-07-08T00:55:17;64821.28;;;-141.11;100.00
11049;BME280;5577;42.706;23.160;2023-07-08T00:58:01;64821.28;;;-141.11;100.00
11049;BME280;5577;42.706;23.160;2023-07-08T01:00:45;64821.28;;;-141.11;100.00
11049;BME280;5577;42.706;23.160;2023-07-08T01:03:29;64821.28;;;-141.11;100.00
11049;BME280;5577;42.706;23.160;2023-07-08T01:06:13;64821.28;;;-141.11;100.00
11049;BME280;5577;42.706;23.160;2023-07-08T01:09:03;64821.28;;;-141.11;100.00
11049;BME280;5577;42.706;23.160;2023-07-08T01:11:49;64821.28;;;-141.11;100.00
11049;BME280;5577;42.706;23.160;2023-07-08T01:14:36;64821.28;;;-141.11;100.00
11049;BME280;5577;42.706;23.160;2023-07-08T01:17:23;64821.28;;;-141.11;100.00
11049;BME280;5577;42.706;23.160;2023-07-08T01:20:07;64821.28;;;-141.11;100.00
11049;BME280;5577;42.706;23.160;2023-07-08T01:22:58;64821.28;;;-141.11;100.00
11049;BME280;5577;42.706;23.160;2023-07-08T01:25:42;64821.28;;;-141.11;100.00
11049;BME280;5577;42.706;23.160;2023-07-08T01:28:28;64821.28;;;-141.11;100.00
11049;BME280;5577;42.706;23.160;2023-07-08T01:31:13;64821.28;;;-141.11;100.00
11049;BME280;5577;42.706;23.160;2023-07-08T01:33:57;64821.28;;;-141.11;100.00
11049;BME280;5577;42.706;23.160;2023-07-08T01:36:45;64821.28;;;-141.11;100.00
11049;BME280;5577;42.706;23.160;2023-07-08T01:39:32;64821.28;;;-141.11;100.00
11049;BME280;5577;42.706;23.160;2023-07-08T01:42:16;64821.28;;;-141.11;100.00
11049;BME280;5577;42.706;23.160;2023-07-08T01:45:00;64821.28;;;-141.11;100.00
11049;BME280;5577;42.706;23.160;2023-07-08T01:47:48;64821.28;;;-141.11;100.00
11049;BME280;5577;42.706;23.160;2023-07-08T01:50:47;64821.28;;;-141.11;100.00
11049;BME280;5577;42.706;23.160;2023-07-08T01:53:37;64821.28;;;-141.11;100.00
11049;BME280;5577;42.706;23.160;2023-07-08T01:56:21;64821.28;;;-141.11;100.00
11049;BME280;5577;42.706;23.160;2023-07-08T01:59:05;64821.28;;;-141.11;100.00
11049;BME280;5577;42.706;23.160;2023-07-08T02:01:50;64821.28;;;-141.11;100.00
11049;BME280;5577;42.706;23.160;2023-07-08T02:04:38;64821.28;;;-141.11;100.00
11049;BME280;5577;42.706;23.160;2023-07-08T02:07:22;64821.28;;;-141.11;100.00
11049;BME280;5577;42.706;23.160;2023-07-08T02:10:06;64821.28;;;-141.11;100.00
11049;BME280;5577;42.706;23.160;2023-07-08T02:12:51;64821.28;;;-141.11;100.00
11049;BME280;5577;42.706;23.160;2023-07-08T02:15:35;64821.28;;;-141.11;100.00
11049;BME280;5577;42.706;23.160;2023-07-08T02:18:19;64821.28;;;-141.11;100.00
11049;BME280;5577;42.706;23.160;2023-07-08T02:21:03;64821.28;;;-141.11;100.00
11049;BME280;5577;42.706;23.160;2023-07-08T02:23:49;64821.28;;;-141.11;100.00
11049;BME280;5577;42.706;23.160;2023-07-08T02:26:33;64821.28;;;-141.11;100.00
11049;BME280;5577;42.706;23.160;2023-07-08T02:29:17;64821.28;;;-141.11;100.00
11049;BME280;5577;42.706;23.160;2023-07-08T02:32:01;64821.28;;;-141.11;100.00
11049;BME280;5577;42.706;23.160;2023-07-08T02:34:45;64821.28;;;-141.11;100.00
11049;BME280;5577;42.706;23.160;2023-07-08T02:37:29;64821.28;;;-141.11;100.00
11049;BME280;5577;42.706;23.160;2023-07-08T02:40:13;64821.28;;;-141.11;100.00
11049;BME280;5577;42.706;23.160;2023-07-08T02:42:58;64821.28;;;-141.11;100.00
11049;BME280;5577;42.706;23.160;2023-07-08T02:45:42;64821.28;;;-141.11;100.00
11049;BME280;5577;42.706;23.160;2023-07-08T02:48:26;64821.28;;;-141.11;100.00
11049;BME280;5577;42.706;23.160;2023-07-08T02:51:10;64821.28;;;-141.11;100.00
11049;BME280;5577;42.706;23.160;2023-07-08T02:53:54;64821.28;;;-141.11;100.00
11049;BME280;5577;42.706;23.160;2023-07-08T02:56:38;64821.28;;;-141.11;100.00
11049;BME280;5577;42.706;23.160;2023-07-08T02:59:22;94429.91;;;22.03;100.00
11049;BME280;5577;42.706;23.160;2023-07-08T03:02:05;64821.28;;;-141.11;100.00
11049;BME280;5577;42.706;23.160;2023-07-08T03:04:50;94434.06;;;18.57;100.00
11049;BME280;5577;42.706;23.160;2023-07-08T03:07:34;64821.28;;;-141.11;100.00
11049;BME280;5577;42.706;23.160;2023-07-08T03:10:17;64821.28;;;-141.11;100.00
11049;BME280;5577;42.706;23.160;2023-07-08T03:13:01;94436.69;;;18.67;100.00
11049;BME280;5577;42.706;23.160;2023-07-08T03:15:45;94433.25;;;18.63;100.00
11049;BME280;5577;42.706;23.160;2023-07-08T03:18:29;94428.63;;;18.74;100.00
11049;BME280;5577;42.706;23.160;2023-07-08T03:21:15;94416.34;;;18.77;100.00
11049;BME280;5577;42.706;23.160;2023-07-08T03:23:59;94424.41;;;18.73;100.00
11049;BME280;5577;42.706;23.160;2023-07-08T03:26:45;94425.50;;;18.86;100.00
11049;BME280;5577;42.706;23.160;2023-07-08T03:29:29;94420.47;;;18.95;100.00
11049;BME280;5577;42.706;23.160;2023-07-08T03:32:13;94422.78;;;18.97;100.00
11049;BME280;5577;42.706;23.160;2023-07-08T03:34:57;94419.28;;;19.03;100.00
11049;BME280;5577;42.706;23.160;2023-07-08T03:37:41;94430.75;;;19.11;100.00
11049;BME280;5577;42.706;23.160;2023-07-08T03:40:25;94421.84;;;19.24;100.00
11049;BME280;5577;42.706;23.160;2023-07-08T03:43:09;94416.53;;;19.17;100.00
11049;BME280;5577;42.706;23.160;2023-07-08T03:45:53;94423.81;;;19.17;100.00
11049;BME280;5577;42.706;23.160;2023-07-08T03:48:37;94426.84;;;19.22;100.00
11049;BME280;5577;42.706;23.160;2023-07-08T03:51:24;94417.63;;;19.30;100.00
11049;BME280;5577;42.706;23.160;2023-07-08T03:54:12;94414.91;;;19.37;100.00
11049;BME280;5577;42.706;23.160;2023-07-08T03:56:57;94407.19;;;19.43;100.00
11049;BME280;5577;42.706;23.160;2023-07-08T03:59:41;94403.22;;;19.58;100.00
11049;BME280;5577;42.706;23.160;2023-07-08T04:02:25;94401.31;;;19.55;100.00
11049;BME280;5577;42.706;23.160;2023-07-08T04:05:17;94399.06;;;19.53;100.00
11049;BME280;5577;42.706;23.160;2023-07-08T04:08:01;94245.56;;;18.60;100.00
11049;BME280;5577;42.706;23.160;2023-07-08T04:10:45;94417.75;;;19.67;100.00
11049;BME280;5577;42.706;23.160;2023-07-08T04:13:29;94373.00;;;19.50;100.00
11049;BME280;5577;42.706;23.160;2023-07-08T04:16:21;94425.25;;;19.87;100.00
11049;BME280;5577;42.706;23.160;2023-07-08T04:19:05;94427.16;;;19.90;100.00
11049;BME280;5577;42.706;23.160;2023-07-08T04:21:56;94417.53;;;19.96;100.00
11049;BME280;5577;42.706;23.160;2023-07-08T04:24:40;94420.88;;;20.07;100.00
11049;BME280;5577;42.706;23.160;2023-07-08T04:27:24;94427.13;;;20.37;100.00
11049;BME280;5577;42.706;23.160;2023-07-08T04:30:17;94429.34;;;20.46;100.00
11049;BME280;5577;42.706;23.160;2023-07-08T04:33:03;94434.13;;;20.28;100.00
11049;BME280;5577;42.706;23.160;2023-07-08T04:35:48;94431.59;;;20.14;100.00
11049;BME280;5577;42.706;23.160;2023-07-08T04:38:32;94435.41;;;20.13;100.00
11049;BME280;5577;42.706;23.160;2023-07-08T04:41:15;94429.34;;;20.05;100.00
11049;BME280;5577;42.706;23.160;2023-07-08T04:43:59;94368.19;;;19.75;100.00
11049;BME280;5577;42.706;23.160;2023-07-08T04:46:52;94420.06;;;20.10;100.00
11049;BME280;5577;42.706;23.160;2023-07-08T04:49:37;94421.69;;;20.00;100.00
11049;BME280;5577;42.706;23.160;2023-07-08T04:52:22;94428.16;;;20.06;100.00
11049;BME280;5577;42.706;23.160;2023-07-08T04:55:06;94402.25;;;19.82;100.00
11049;BME280;5577;42.706;23.160;2023-07-08T04:57:51;94430.91;;;20.03;100.00
11049;BME280;5577;42.706;23.160;2023-07-08T05:00:35;94431.56;;;20.10;100.00
11049;BME280;5577;42.706;23.160;2023-07-08T05:03:19;94436.09;;;20.24;100.00
11049;BME280;5577;42.706;23.160;2023-07-08T05:06:03;94446.41;;;20.29;100.00
11049;BME280;5577;42.706;23.160;2023-07-08T05:08:47;94442.88;;;20.35;100.00
11049;BME280;5577;42.706;23.160;2023-07-08T05:11:32;94443.59;;;20.39;100.00
11049;BME280;5577;42.706;23.160;2023-07-08T05:14:16;94408.50;;;20.16;100.00
11049;BME280;5577;42.706;23.160;2023-07-08T05:17:00;94454.75;;;20.75;100.00
11049;BME280;5577;42.706;23.160;2023-07-08T05:19:44;94449.34;;;20.78;100.00
11049;BME280;5577;42.706;23.160;2023-07-08T05:22:29;94453.16;;;20.81;100.00
11049;BME280;5577;42.706;23.160;2023-07-08T05:25:14;94466.53;;;20.88;100.00
11049;BME280;5577;42.706;23.160;2023-07-08T05:27:58;94413.88;;;20.53;100.00
11049;BME280;5577;42.706;23.160;2023-07-08T05:30:42;94456.09;;;20.90;100.00
11049;BME280;5577;42.706;23.160;2023-07-08T05:33:29;94462.63;;;20.92;100.00
11049;BME280;5577;42.706;23.160;2023-07-08T05:36:14;94463.00;;;20.94;100.00
11049;BME280;5577;42.706;23.160;2023-07-08T05:38:57;94463.13;;;20.84;100.00
11049;BME280;5577;42.706;23.160;2023-07-08T05:41:41;94383.13;;;20.21;100.00
11049;BME280;5577;42.706;23.160;2023-07-08T05:44:25;94472.41;;;20.79;100.00
11049;BME280;5577;42.706;23.160;2023-07-08T05:47:10;94476.66;;;20.77;100.00
11049;BME280;5577;42.706;23.160;2023-07-08T05:49:54;94480.53;;;20.72;100.00
11049;BME280;5577;42.706;23.160;2023-07-08T05:52:37;94477.53;;;20.67;100.00
11049;BME280;5577;42.706;23.160;2023-07-08T05:55:21;94492.91;;;20.66;100.00
11049;BME280;5577;42.706;23.160;2023-07-08T05:58:05;94496.53;;;20.86;100.00
11049;BME280;5577;42.706;23.160;2023-07-08T06:00:55;94478.72;;;20.99;100.00
11049;BME280;5577;42.706;23.160;2023-07-08T06:03:39;94484.44;;;21.05;100.00
11049;BME280;5577;42.706;23.160;2023-07-08T06:06:24;94479.28;;;21.17;100.00
11049;BME280;5577;42.706;23.160;2023-07-08T06:09:08;94489.91;;;21.28;100.00
11049;BME280;5577;42.706;23.160;2023-07-08T06:11:52;94498.28;;;21.33;100.00
11049;BME280;5577;42.706;23.160;2023-07-08T06:14:36;94494.34;;;21.41;100.00
11049;BME280;5577;42.706;23.160;2023-07-08T06:17:21;94497.34;;;21.47;100.00
11049;BME280;5577;42.706;23.160;2023-07-08T06:20:06;94495.22;;;21.61;100.00
11049;BME280;5577;42.706;23.160;2023-07-08T06:22:50;94499.34;;;21.69;100.00
11049;BME280;5577;42.706;23.160;2023-07-08T06:25:34;94497.00;;;21.75;100.00
11049;BME280;5577;42.706;23.160;2023-07-08T06:28:18;94494.94;;;21.82;100.00
11049;BME280;5577;42.706;23.160;2023-07-08T06:31:03;94499.59;;;21.82;100.00
11049;BME280;5577;42.706;23.160;2023-07-08T06:33:47;94497.22;;;21.84;100.00
11049;BME280;5577;42.706;23.160;2023-07-08T06:36:31;94491.22;;;21.99;100.00
11049;BME280;5577;42.706;23.160;2023-07-08T06:39:15;94487.13;;;22.14;100.00
11049;BME280;5577;42.706;23.160;2023-07-08T06:42:00;94483.31;;;22.12;100.00
11049;BME280;5577;42.706;23.160;2023-07-08T06:44:44;94491.47;;;22.31;100.00
11049;BME280;5577;42.706;23.160;2023-07-08T06:47:34;94495.34;;;22.54;100.00
11049;BME280;5577;42.706;23.160;2023-07-08T06:50:18;94488.22;;;22.40;100.00
11049;BME280;5577;42.706;23.160;2023-07-08T06:53:02;94503.50;;;22.50;100.00
11049;BME280;5577;42.706;23.160;2023-07-08T06:55:46;94502.31;;;22.28;100.00
11049;BME280;5577;42.706;23.160;2023-07-08T06:58:31;94507.38;;;21.99;100.00
11049;BME280;5577;42.706;23.160;2023-07-08T07:01:15;94504.91;;;21.85;100.00
11049;BME280;5577;42.706;23.160;2023-07-08T07:03:59;94504.59;;;21.80;100.00
11049;BME280;5577;42.706;23.160;2023-07-08T07:06:44;94513.16;;;21.71;100.00
11049;BME280;5577;42.706;23.160;2023-07-08T07:09:28;94498.31;;;21.60;100.00
11049;BME280;5577;42.706;23.160;2023-07-08T07:12:12;94513.78;;;21.56;100.00
11049;BME280;5577;42.706;23.160;2023-07-08T07:14:56;94499.38;;;21.39;100.00
11049;BME280;5577;42.706;23.160;2023-07-08T07:17:40;94520.75;;;21.53;100.00
11049;BME280;5577;42.706;23.160;2023-07-08T07:20:25;94476.97;;;21.16;100.00
11049;BME280;5577;42.706;23.160;2023-07-08T07:23:09;94526.63;;;21.45;100.00
11049;BME280;5577;42.706;23.160;2023-07-08T07:25:53;94520.59;;;21.34;100.00
11049;BME280;5577;42.706;23.160;2023-07-08T07:28:37;94526.88;;;21.24;100.00
11049;BME280;5577;42.706;23.160;2023-07-08T07:31:21;94536.53;;;21.21;100.00
11049;BME280;5577;42.706;23.160;2023-07-08T07:34:05;94546.19;;;21.19;100.00
11049;BME280;5577;42.706;23.160;2023-07-08T07:36:50;94545.72;;;21.24;100.00
11049;BME280;5577;42.706;23.160;2023-07-08T07:39:34;94537.72;;;21.50;100.00
11049;BME280;5577;42.706;23.160;2023-07-08T07:42:18;94531.31;;;21.67;100.00
11049;BME280;5577;42.706;23.160;2023-07-08T07:45:03;94532.13;;;21.64;100.00
11049;BME280;5577;42.706;23.160;2023-07-08T07:47:47;94530.00;;;21.52;100.00
11049;BME280;5577;42.706;23.160;2023-07-08T07:50:31;94530.03;;;21.49;100.00
11049;BME280;5577;42.706;23.160;2023-07-08T07:53:15;94537.78;;;21.43;100.00
11049;BME280;5577;42.706;23.160;2023-07-08T07:56:00;94537.66;;;21.54;100.00
11049;BME280;5577;42.706;23.160;2023-07-08T07:58:45;94538.78;;;21.56;100.00
11049;BME280;5577;42.706;23.160;2023-07-08T08:01:29;94535.59;;;21.65;100.00
11049;BME280;5577;42.706;23.160;2023-07-08T08:04:13;94537.09;;;21.69;100.00
11049;BME280;5577;42.706;23.160;2023-07-08T08:06:56;94545.91;;;21.70;100.00
11049;BME280;5577;42.706;23.160;2023-07-08T08:09:40;94540.53;;;21.70;100.00
11049;BME280;5577;42.706;23.160;2023-07-08T08:12:24;94541.41;;;21.60;100.00
11049;BME280;5577;42.706;23.160;2023-07-08T08:15:08;94541.78;;;21.62;100.00
11049;BME280;5577;42.706;23.160;2023-07-08T08:17:53;94495.59;;;21.33;100.00
11049;BME280;5577;42.706;23.160;2023-07-08T08:20:37;94526.22;;;21.46;100.00
11049;BME280;5577;42.706;23.160;2023-07-08T08:23:23;94536.94;;;21.50;100.00
11049;BME280;5577;42.706;23.160;2023-07-08T08:26:07;94529.59;;;21.54;100.00
11049;BME280;5577;42.706;23.160;2023-07-08T08:28:51;94532.69;;;21.52;100.00
11049;BME280;5577;42.706;23.160;2023-07-08T08:31:35;94538.38;;;21.58;100.00
11049;BME280;5577;42.706;23.160;2023-07-08T08:34:19;94539.09;;;21.62;100.00
11049;BME280;5577;42.706;23.160;2023-07-08T08:37:03;94531.66;;;21.73;100.00
11049;BME280;5577;42.706;23.160;2023-07-08T08:39:47;94524.19;;;21.84;100.00
11049;BME280;5577;42.706;23.160;2023-07-08T08:42:49;94517.56;;;21.88;100.00
11049;BME280;5577;42.706;23.160;2023-07-08T08:45:52;94507.72;;;21.78;100.00
11049;BME280;5577;42.706;23.160;2023-07-08T08:49:04;94533.97;;;21.97;100.00
11049;BME280;5577;42.706;23.160;2023-07-08T08:51:49;94495.44;;;21.74;100.00
11049;BME280;5577;42.706;23.160;2023-07-08T08:54:33;94532.34;;;22.03;100.00
11049;BME280;5577;42.706;23.160;2023-07-08T09:00:16;94491.41;;;22.12;100.00
11049;BME280;5577;42.706;23.160;2023-07-08T09:03:10;94521.91;;;22.32;100.00
11049;BME280;5577;42.706;23.160;2023-07-08T09:05:58;94523.75;;;22.62;100.00
11049;BME280;5577;42.706;23.160;2023-07-08T09:08:43;94532.19;;;23.26;100.00
11049;BME280;5577;42.706;23.160;2023-07-08T09:14:24;94528.41;;;24.30;100.00
11049;BME280;5577;42.706;23.160;2023-07-08T09:20:24;94522.50;;;24.95;100.00
11049;BME280;5577;42.706;23.160;2023-07-08T09:23:21;94514.97;;;24.87;100.00
11049;BME280;5577;42.706;23.160;2023-07-08T09:26:12;94524.31;;;25.27;98.23
11049;BME280;5577;42.706;23.160;2023-07-08T09:28:59;94520.97;;;25.64;100.00
11049;BME280;5577;42.706;23.160;2023-07-08T09:31:43;94521.84;;;25.61;100.00
11049;BME280;5577;42.706;23.160;2023-07-08T09:34:41;94527.63;;;25.76;98.95
11049;BME280;5577;42.706;23.160;2023-07-08T09:40:33;94515.41;;;25.43;100.00
11049;BME280;5577;42.706;23.160;2023-07-08T09:43:27;94521.16;;;25.16;99.89
11049;BME280;5577;42.706;23.160;2023-07-08T09:46:12;94518.66;;;25.38;91.34
11049;BME280;5577;42.706;23.160;2023-07-08T09:48:57;94512.94;;;25.61;91.28
11049;BME280;5577;42.706;23.160;2023-07-08T09:51:41;94512.50;;;25.75;89.63
11049;BME280;5577;42.706;23.160;2023-07-08T09:54:26;94508.19;;;25.77;88.81
11049;BME280;5577;42.706;23.160;2023-07-08T09:57:29;94499.31;;;26.02;92.81
11049;BME280;5577;42.706;23.160;2023-07-08T10:00:25;94501.16;;;26.17;88.48
11049;BME280;5577;42.706;23.160;2023-07-08T10:03:22;94497.09;;;26.47;88.13
11049;BME280;5577;42.706;23.160;2023-07-08T10:06:24;94504.44;;;26.59;87.69
11049;BME280;5577;42.706;23.160;2023-07-08T10:09:12;94505.88;;;26.63;87.70
11049;BME280;5577;42.706;23.160;2023-07-08T10:12:04;94507.28;;;27.02;85.48
11049;BME280;5577;42.706;23.160;2023-07-08T10:14:58;94499.50;;;27.13;85.50
11049;BME280;5577;42.706;23.160;2023-07-08T10:17:43;94505.78;;;27.22;77.27
11049;BME280;5577;42.706;23.160;2023-07-08T10:23:50;94489.00;;;27.67;74.60
11049;BME280;5577;42.706;23.160;2023-07-08T10:26:35;94480.81;;;27.67;76.16
11049;BME280;5577;42.706;23.160;2023-07-08T10:35:37;94474.03;;;27.93;72.11
11049;BME280;5577;42.706;23.160;2023-07-08T10:39:17;94466.31;;;27.92;69.85
11049;BME280;5577;42.706;23.160;2023-07-08T10:44:52;94467.66;;;27.96;71.57
11049;BME280;5577;42.706;23.160;2023-07-08T10:47:42;94459.38;;;28.00;71.33
11049;BME280;5577;42.706;23.160;2023-07-08T10:56:34;94454.81;;;27.97;68.00
11049;BME280;5577;42.706;23.160;2023-07-08T11:08:53;94443.69;;;28.22;64.58
11049;BME280;5577;42.706;23.160;2023-07-08T11:11:44;94439.88;;;28.10;69.59
11049;BME280;5577;42.706;23.160;2023-07-08T11:14:47;94431.31;;;28.30;70.06
11049;BME280;5577;42.706;23.160;2023-07-08T11:21:09;94428.03;;;28.98;66.64
11049;BME280;5577;42.706;23.160;2023-07-08T11:24:00;94434.31;;;29.49;62.10
11049;BME280;5577;42.706;23.160;2023-07-08T11:26:50;94432.38;;;29.91;62.17
11049;BME280;5577;42.706;23.160;2023-07-08T11:29:46;94438.38;;;29.71;61.86
11049;BME280;5577;42.706;23.160;2023-07-08T11:32:34;94434.13;;;29.02;61.48
11049;BME280;5577;42.706;23.160;2023-07-08T11:35:23;94427.44;;;29.12;62.09
11049;BME280;5577;42.706;23.160;2023-07-08T11:38:16;94430.69;;;29.52;57.81
11049;BME280;5577;42.706;23.160;2023-07-08T11:41:04;94436.22;;;29.25;58.09
11049;BME280;5577;42.706;23.160;2023-07-08T11:43:56;94433.00;;;29.35;57.91
11049;BME280;5577;42.706;23.160;2023-07-08T11:46:53;94437.44;;;29.74;55.28
11049;BME280;5577;42.706;23.160;2023-07-08T11:49:38;94431.22;;;30.06;55.03
11049;BME280;5577;42.706;23.160;2023-07-08T11:52:23;94372.78;;;29.89;54.56
11049;BME280;5577;42.706;23.160;2023-07-08T11:55:19;94365.03;;;29.64;55.95
11049;BME280;5577;42.706;23.160;2023-07-08T11:58:22;94429.59;;;29.67;55.09
11049;BME280;5577;42.706;23.160;2023-07-08T12:10:18;94434.53;;;28.91;59.33
11049;BME280;5577;42.706;23.160;2023-07-08T12:13:13;94435.03;;;29.08;62.01
11049;BME280;5577;42.706;23.160;2023-07-08T12:15:57;94430.31;;;29.17;60.60
11049;BME280;5577;42.706;23.160;2023-07-08T12:18:43;94435.22;;;29.64;59.52
11049;BME280;5577;42.706;23.160;2023-07-08T12:21:30;94433.72;;;29.54;58.15
11049;BME280;5577;42.706;23.160;2023-07-08T12:24:18;94437.13;;;29.81;58.24
11049;BME280;5577;42.706;23.160;2023-07-08T12:27:02;94422.69;;;29.90;56.99
11049;BME280;5577;42.706;23.160;2023-07-08T12:29:46;94431.13;;;29.50;55.71
11049;BME280;5577;42.706;23.160;2023-07-08T12:32:31;94366.75;;;29.02;58.23
11049;BME280;5577;42.706;23.160;2023-07-08T12:35:30;94428.72;;;29.43;56.48
11049;BME280;5577;42.706;23.160;2023-07-08T12:38:23;94435.31;;;28.92;56.46
11049;BME280;5577;42.706;23.160;2023-07-08T12:41:23;94425.84;;;28.30;58.09
11049;BME280;5577;42.706;23.160;2023-07-08T12:44:23;94419.16;;;27.64;60.29
11049;BME280;5577;42.706;23.160;2023-07-08T12:47:07;94417.94;;;27.96;62.04
11049;BME280;5577;42.706;23.160;2023-07-08T12:49:52;94427.00;;;27.93;59.75
11049;BME280;5577;42.706;23.160;2023-07-08T12:52:38;94407.53;;;27.73;61.23
11049;BME280;5577;42.706;23.160;2023-07-08T12:55:22;94413.16;;;27.78;61.19
11049;BME280;5577;42.706;23.160;2023-07-08T12:58:17;94429.13;;;27.15;63.14
11049;BME280;5577;42.706;23.160;2023-07-08T13:01:05;94374.16;;;26.46;66.72
11049;BME280;5577;42.706;23.160;2023-07-08T13:03:53;94429.28;;;26.90;63.69
11049;BME280;5577;42.706;23.160;2023-07-08T13:06:38;94420.47;;;26.64;62.84
11049;BME280;5577;42.706;23.160;2023-07-08T13:12:26;94424.59;;;27.12;64.05
11049;BME280;5577;42.706;23.160;2023-07-08T13:15:17;94415.59;;;27.76;64.39
11049;BME280;5577;42.706;23.160;2023-07-08T13:18:03;94417.94;;;27.96;60.53
11049;BME280;5577;42.706;23.160;2023-07-08T13:20:53;94377.50;;;27.36;60.55
11049;BME280;5577;42.706;23.160;2023-07-08T13:23:38;94422.56;;;27.46;62.66
11049;BME280;5577;42.706;23.160;2023-07-08T13:26:25;94418.44;;;27.73;61.22
11049;BME280;5577;42.706;23.160;2023-07-08T13:29:14;94427.63;;;27.66;61.03
11049;BME280;5577;42.706;23.160;2023-07-08T13:32:05;94424.69;;;27.51;60.60
11049;BME280;5577;42.706;23.160;2023-07-08T13:34:49;94423.38;;;28.05;61.22
11049;BME280;5577;42.706;23.160;2023-07-08T13:37:35;94416.69;;;27.88;65.98
11049;BME280;5577;42.706;23.160;2023-07-08T13:40:19;94406.53;;;27.79;68.06
11049;BME280;5577;42.706;23.160;2023-07-08T13:43:03;94418.09;;;27.31;66.64
11049;BME280;5577;42.706;23.160;2023-07-08T13:45:47;94410.41;;;27.69;65.85
11049;BME280;5577;42.706;23.160;2023-07-08T13:48:40;94398.44;;;27.97;67.40
11049;BME280;5577;42.706;23.160;2023-07-08T13:51:29;94400.75;;;28.17;64.68
11049;BME280;5577;42.706;23.160;2023-07-08T13:54:24;94413.75;;;28.22;63.95
11049;BME280;5577;42.706;23.160;2023-07-08T13:57:14;94404.53;;;28.28;60.12
11049;BME280;5577;42.706;23.160;2023-07-08T13:59:59;94407.19;;;27.92;61.43
11049;BME280;5577;42.706;23.160;2023-07-08T14:02:44;94402.78;;;27.95;61.04
11049;BME280;5577;42.706;23.160;2023-07-08T14:05:29;94394.31;;;27.84;59.86
11049;BME280;5577;42.706;23.160;2023-07-08T14:08:15;94397.50;;;27.91;60.97
11049;BME280;5577;42.706;23.160;2023-07-08T14:10:59;94403.13;;;27.97;60.24
11049;BME280;5577;42.706;23.160;2023-07-08T14:13:43;94395.72;;;28.06;59.99
11049;BME280;5577;42.706;23.160;2023-07-08T14:16:29;94412.22;;;28.03;60.17
11049;BME280;5577;42.706;23.160;2023-07-08T14:19:29;94372.72;;;27.98;61.88
11049;BME280;5577;42.706;23.160;2023-07-08T14:25:04;94400.28;;;28.09;59.46
11049;BME280;5577;42.706;23.160;2023-07-08T14:27:50;94398.28;;;28.01;59.42
11049;BME280;5577;42.706;23.160;2023-07-08T14:30:38;94407.66;;;28.09;62.33
11049;BME280;5577;42.706;23.160;2023-07-08T14:33:24;94401.81;;;28.28;63.70
11049;BME280;5577;42.706;23.160;2023-07-08T14:36:11;94403.94;;;28.33;62.51
11049;BME280;5577;42.706;23.160;2023-07-08T14:38:56;94398.28;;;27.92;60.58
11049;BME280;5577;42.706;23.160;2023-07-08T14:41:42;94407.63;;;27.91;63.16
11049;BME280;5577;42.706;23.160;2023-07-08T14:44:32;94406.16;;;27.68;62.66
11049;BME280;5577;42.706;23.160;2023-07-08T14:47:18;94406.59;;;27.27;64.63
11049;BME280;5577;42.706;23.160;2023-07-08T14:50:21;94362.09;;;26.47;67.08
11049;BME280;5577;42.706;23.160;2023-07-08T14:53:05;94350.91;;;26.45;66.81
11049;BME280;5577;42.706;23.160;2023-07-08T14:55:52;94417.47;;;26.84;64.70
11049;BME280;5577;42.706;23.160;2023-07-08T14:58:39;94410.44;;;26.95;63.18
11049;BME280;5577;42.706;23.160;2023-07-08T15:01:24;94415.38;;;27.09;64.11
11049;BME280;5577;42.706;23.160;2023-07-08T15:04:15;94412.72;;;27.18;65.02
11049;BME280;5577;42.706;23.160;2023-07-08T15:07:00;94413.09;;;27.08;64.60
11049;BME280;5577;42.706;23.160;2023-07-08T15:09:44;94415.94;;;27.26;64.77
11049;BME280;5577;42.706;23.160;2023-07-08T15:12:28;94422.22;;;27.44;64.81
11049;BME280;5577;42.706;23.160;2023-07-08T15:15:18;94379.09;;;27.25;63.53
11049;BME280;5577;42.706;23.160;2023-07-08T15:18:17;94362.41;;;26.92;64.05
11049;BME280;5577;42.706;23.160;2023-07-08T15:21:01;94421.25;;;27.08;63.77
11049;BME280;5577;42.706;23.160;2023-07-08T15:23:47;94417.19;;;27.12;63.13
11049;BME280;5577;42.706;23.160;2023-07-08T15:26:31;94422.78;;;27.09;67.50
11049;BME280;5577;42.706;23.160;2023-07-08T15:29:20;94426.25;;;26.88;65.96
11049;BME280;5577;42.706;23.160;2023-07-08T15:32:12;94368.28;;;26.26;63.34
11049;BME280;5577;42.706;23.160;2023-07-08T15:34:57;94422.25;;;26.80;65.13
11049;BME280;5577;42.706;23.160;2023-07-08T15:37:42;94396.44;;;26.75;65.45